Bear Lake, Minnesota
Current Conditions -  °F | °C
As of 8:34 AM on Friday 31 Oct 2014 (Local Time) from KCQM Reporting Station
Scattered Clouds Scattered Clouds  
Wind Chill: 21°   Ceiling: Unl
Heat Index: 21°   Visibility: 10mi
Dew Point: 18°   Wind: 0mph
Humidity: 86%   Direction: NA
Pressure: 30.55"   Gusts: NA
Location:  47.8142°N, 92.9861°W
Report Text: KCQM 311334Z AUTO 00000KT 10SM SCT022 M06/M08 A3055 RMK AO2
Loading
Personal Weather Stations






























Interactive Weather Map
Tropical Storm Tracking
New forecast layout! Learn more

10-Day Weather Forecast

Advertisements
Track Severe Weather on mobile